sensor_id;sensor_type;location;lat;lon;timestamp;pressure;altitude;pressure_sealevel;temperature;humidity
33191;BME280;19554;42.652;23.364;2024-02-16T00:01:18;95127.41;;;5.25;56.25
33191;BME280;19554;42.652;23.364;2024-02-16T00:03:44;95162.53;;;5.37;56.17
33191;BME280;19554;42.652;23.364;2024-02-16T00:06:09;95168.63;;;5.38;55.99
33191;BME280;19554;42.652;23.364;2024-02-16T00:08:35;95145.84;;;5.20;56.44
33191;BME280;19554;42.652;23.364;2024-02-16T00:11:04;95033.59;;;4.48;57.07
33191;BME280;19554;42.652;23.364;2024-02-16T00:13:30;95119.53;;;4.96;56.86
33191;BME280;19554;42.652;23.364;2024-02-16T00:15:55;95172.97;;;5.27;56.73
33191;BME280;19554;42.652;23.364;2024-02-16T00:18:21;95123.84;;;4.86;57.03
33191;BME280;19554;42.652;23.364;2024-02-16T00:20:46;95137.00;;;4.97;57.33
33191;BME280;19554;42.652;23.364;2024-02-16T00:23:11;95083.41;;;4.57;57.46
33191;BME280;19554;42.652;23.364;2024-02-16T00:25:37;95179.19;;;5.21;57.70
33191;BME280;19554;42.652;23.364;2024-02-16T00:28:03;95190.84;;;5.20;57.82
33191;BME280;19554;42.652;23.364;2024-02-16T00:30:29;95149.00;;;4.88;57.29
33191;BME280;19554;42.652;23.364;2024-02-16T00:32:54;95163.38;;;4.92;57.10
33191;BME280;19554;42.652;23.364;2024-02-16T00:35:20;95192.66;;;5.03;56.84
33191;BME280;19554;42.652;23.364;2024-02-16T00:37:45;95124.13;;;4.56;57.48
33191;BME280;19554;42.652;23.364;2024-02-16T00:40:11;95186.38;;;4.92;57.65
33191;BME280;19554;42.652;23.364;2024-02-16T00:42:37;95183.50;;;4.93;57.77
33191;BME280;19554;42.652;23.364;2024-02-16T00:45:03;95116.00;;;4.45;57.99
33191;BME280;19554;42.652;23.364;2024-02-16T00:47:29;95123.31;;;4.55;58.10
33191;BME280;19554;42.652;23.364;2024-02-16T00:49:55;95123.47;;;4.48;58.14
33191;BME280;19554;42.652;23.364;2024-02-16T00:52:21;95186.03;;;4.88;57.98
33191;BME280;19554;42.652;23.364;2024-02-16T00:54:48;95144.47;;;4.55;57.90
33191;BME280;19554;42.652;23.364;2024-02-16T00:57:13;95190.66;;;4.81;58.22
33191;BME280;19554;42.652;23.364;2024-02-16T00:59:40;95172.34;;;4.63;58.07
33191;BME280;19554;42.652;23.364;2024-02-16T01:02:05;95206.22;;;4.78;57.96
33191;BME280;19554;42.652;23.364;2024-02-16T01:04:32;95189.34;;;4.67;57.82
33191;BME280;19554;42.652;23.364;2024-02-16T01:06:57;95177.41;;;4.64;58.41
33191;BME280;19554;42.652;23.364;2024-02-16T01:09:23;95192.28;;;4.82;58.27
33191;BME280;19554;42.652;23.364;2024-02-16T01:11:48;95098.25;;;4.29;59.07
33191;BME280;19554;42.652;23.364;2024-02-16T01:14:14;95165.88;;;4.70;58.58
33191;BME280;19554;42.652;23.364;2024-02-16T01:16:40;95174.16;;;4.74;58.63
33191;BME280;19554;42.652;23.364;2024-02-16T01:19:05;95158.09;;;4.64;58.63
33191;BME280;19554;42.652;23.364;2024-02-16T01:21:32;95185.72;;;4.85;58.66
33191;BME280;19554;42.652;23.364;2024-02-16T01:23:58;95182.66;;;4.76;57.71
33191;BME280;19554;42.652;23.364;2024-02-16T01:26:26;95155.66;;;4.45;57.39
33191;BME280;19554;42.652;23.364;2024-02-16T01:28:52;95163.63;;;4.62;57.82
33191;BME280;19554;42.652;23.364;2024-02-16T01:31:17;95129.22;;;4.45;58.09
33191;BME280;19554;42.652;23.364;2024-02-16T01:33:42;95126.66;;;4.50;58.14
33191;BME280;19554;42.652;23.364;2024-02-16T01:36:08;95179.16;;;4.87;57.71
33191;BME280;19554;42.652;23.364;2024-02-16T01:38:33;95158.84;;;4.76;57.45
33191;BME280;19554;42.652;23.364;2024-02-16T01:41:00;95174.50;;;4.94;57.52
33191;BME280;19554;42.652;23.364;2024-02-16T01:43:26;95104.31;;;4.41;57.32
33191;BME280;19554;42.652;23.364;2024-02-16T01:45:53;95136.91;;;4.75;57.39
33191;BME280;19554;42.652;23.364;2024-02-16T01:48:19;95122.69;;;4.65;57.06
33191;BME280;19554;42.652;23.364;2024-02-16T01:50:45;95166.03;;;4.92;57.04
33191;BME280;19554;42.652;23.364;2024-02-16T01:53:14;95169.94;;;4.90;57.07
33191;BME280;19554;42.652;23.364;2024-02-16T01:55:47;95169.38;;;4.88;57.14
33191;BME280;19554;42.652;23.364;2024-02-16T01:58:12;95147.16;;;4.72;57.14
33191;BME280;19554;42.652;23.364;2024-02-16T02:00:39;95165.84;;;4.82;57.32
33191;BME280;19554;42.652;23.364;2024-02-16T02:03:05;95134.69;;;4.56;57.57
33191;BME280;19554;42.652;23.364;2024-02-16T02:05:31;95178.50;;;4.80;58.31
33191;BME280;19554;42.652;23.364;2024-02-16T02:07:57;95119.19;;;4.47;58.38
33191;BME280;19554;42.652;23.364;2024-02-16T02:10:22;95132.75;;;4.51;58.15
33191;BME280;19554;42.652;23.364;2024-02-16T02:12:48;95086.34;;;4.15;58.18
33191;BME280;19554;42.652;23.364;2024-02-16T02:15:13;95137.84;;;4.41;58.25
33191;BME280;19554;42.652;23.364;2024-02-16T02:17:39;95113.00;;;4.13;58.03
33191;BME280;19554;42.652;23.364;2024-02-16T02:20:05;95165.22;;;4.35;57.47
33191;BME280;19554;42.652;23.364;2024-02-16T02:22:34;95119.91;;;4.02;57.36
33191;BME280;19554;42.652;23.364;2024-02-16T02:24:59;95133.25;;;4.08;57.52
33191;BME280;19554;42.652;23.364;2024-02-16T02:27:25;95136.44;;;4.10;58.00
33191;BME280;19554;42.652;23.364;2024-02-16T02:29:50;95096.41;;;3.89;57.85
33191;BME280;19554;42.652;23.364;2024-02-16T02:32:16;95125.19;;;4.02;57.19
33191;BME280;19554;42.652;23.364;2024-02-16T02:34:42;95170.19;;;4.31;57.50
33191;BME280;19554;42.652;23.364;2024-02-16T02:37:08;95099.50;;;3.86;58.18
33191;BME280;19554;42.652;23.364;2024-02-16T02:39:34;95173.28;;;4.28;58.06
33191;BME280;19554;42.652;23.364;2024-02-16T02:42:00;95109.59;;;3.89;58.06
33191;BME280;19554;42.652;23.364;2024-02-16T02:44:25;95117.31;;;3.91;58.79
33191;BME280;19554;42.652;23.364;2024-02-16T02:46:51;95113.75;;;3.85;58.65
33191;BME280;19554;42.652;23.364;2024-02-16T02:49:18;95096.66;;;3.76;58.36
33191;BME280;19554;42.652;23.364;2024-02-16T02:51:43;95110.22;;;3.79;58.12
33191;BME280;19554;42.652;23.364;2024-02-16T02:54:09;95063.53;;;3.45;57.55
33191;BME280;19554;42.652;23.364;2024-02-16T02:56:35;95051.31;;;3.39;58.40
33191;BME280;19554;42.652;23.364;2024-02-16T02:59:00;95169.31;;;4.14;58.64
33191;BME280;19554;42.652;23.364;2024-02-16T03:01:26;95168.00;;;4.16;58.72
33191;BME280;19554;42.652;23.364;2024-02-16T03:03:51;95132.81;;;3.87;57.95
33191;BME280;19554;42.652;23.364;2024-02-16T03:06:18;95077.75;;;3.55;58.21
33191;BME280;19554;42.652;23.364;2024-02-16T03:08:43;95169.31;;;4.14;58.70
33191;BME280;19554;42.652;23.364;2024-02-16T03:11:09;95171.44;;;4.17;59.18
33191;BME280;19554;42.652;23.364;2024-02-16T03:13:34;95118.25;;;3.85;58.46
33191;BME280;19554;42.652;23.364;2024-02-16T03:16:00;95122.94;;;3.94;57.86
33191;BME280;19554;42.652;23.364;2024-02-16T03:18:29;95081.78;;;3.70;57.88
33191;BME280;19554;42.652;23.364;2024-02-16T03:20:55;95135.75;;;4.02;57.79
33191;BME280;19554;42.652;23.364;2024-02-16T03:23:22;95170.63;;;4.28;58.38
33191;BME280;19554;42.652;23.364;2024-02-16T03:25:48;95124.66;;;4.00;58.94
33191;BME280;19554;42.652;23.364;2024-02-16T03:28:14;95100.69;;;3.90;59.12
33191;BME280;19554;42.652;23.364;2024-02-16T03:30:41;95107.56;;;3.91;58.82
33191;BME280;19554;42.652;23.364;2024-02-16T03:33:07;95111.09;;;3.97;58.44
33191;BME280;19554;42.652;23.364;2024-02-16T03:35:33;95171.31;;;4.35;58.35
33191;BME280;19554;42.652;23.364;2024-02-16T03:37:58;95091.03;;;3.84;58.42
33191;BME280;19554;42.652;23.364;2024-02-16T03:40:24;95167.53;;;4.31;58.54
33191;BME280;19554;42.652;23.364;2024-02-16T03:42:53;95169.34;;;4.31;58.32
33191;BME280;19554;42.652;23.364;2024-02-16T03:45:18;95107.56;;;3.91;57.90
33191;BME280;19554;42.652;23.364;2024-02-16T03:47:44;95170.72;;;4.33;58.29
33191;BME280;19554;42.652;23.364;2024-02-16T03:50:10;95171.78;;;4.32;57.70
33191;BME280;19554;42.652;23.364;2024-02-16T03:52:36;95134.16;;;4.01;57.72
33191;BME280;19554;42.652;23.364;2024-02-16T03:55:02;95153.56;;;4.07;57.64
33191;BME280;19554;42.652;23.364;2024-02-16T03:57:30;95176.19;;;4.15;57.21
33191;BME280;19554;42.652;23.364;2024-02-16T03:59:56;95149.00;;;3.91;57.83
33191;BME280;19554;42.652;23.364;2024-02-16T04:02:22;95062.06;;;3.37;58.47
33191;BME280;19554;42.652;23.364;2024-02-16T04:04:47;95163.81;;;4.03;58.73
33191;BME280;19554;42.652;23.364;2024-02-16T04:07:13;95171.16;;;4.01;58.74
33191;BME280;19554;42.652;23.364;2024-02-16T04:09:38;95153.72;;;3.77;58.68
33191;BME280;19554;42.652;23.364;2024-02-16T04:12:04;95130.91;;;3.59;58.63
33191;BME280;19554;42.652;23.364;2024-02-16T04:14:30;95172.66;;;3.86;58.65
33191;BME280;19554;42.652;23.364;2024-02-16T04:16:56;95165.66;;;3.91;58.85
33191;BME280;19554;42.652;23.364;2024-02-16T04:19:28;95135.25;;;3.65;58.98
33191;BME280;19554;42.652;23.364;2024-02-16T04:21:54;95127.09;;;3.67;58.82
33191;BME280;19554;42.652;23.364;2024-02-16T04:24:20;95168.88;;;3.93;59.03
33191;BME280;19554;42.652;23.364;2024-02-16T04:26:45;95164.72;;;3.97;59.28
33191;BME280;19554;42.652;23.364;2024-02-16T04:29:11;95170.00;;;3.97;59.39
33191;BME280;19554;42.652;23.364;2024-02-16T04:31:40;95104.03;;;3.62;59.43
33191;BME280;19554;42.652;23.364;2024-02-16T04:34:07;95136.97;;;3.83;59.69
33191;BME280;19554;42.652;23.364;2024-02-16T04:36:33;95080.75;;;3.47;59.47
33191;BME280;19554;42.652;23.364;2024-02-16T04:38:58;95171.34;;;4.12;59.79
33191;BME280;19554;42.652;23.364;2024-02-16T04:41:24;95134.41;;;3.88;59.58
33191;BME280;19554;42.652;23.364;2024-02-16T04:43:49;95078.59;;;3.56;59.32
33191;BME280;19554;42.652;23.364;2024-02-16T04:46:15;95169.31;;;4.14;58.63
33191;BME280;19554;42.652;23.364;2024-02-16T04:48:41;95147.16;;;3.91;58.64
33191;BME280;19554;42.652;23.364;2024-02-16T04:51:06;95173.88;;;4.07;59.43
33191;BME280;19554;42.652;23.364;2024-02-16T04:53:32;95182.97;;;3.99;58.85
33191;BME280;19554;42.652;23.364;2024-02-16T04:55:57;95189.78;;;3.83;58.74
33191;BME280;19554;42.652;23.364;2024-02-16T04:58:23;95189.56;;;3.73;59.02
33191;BME280;19554;42.652;23.364;2024-02-16T05:00:49;95190.47;;;3.67;59.16
33191;BME280;19554;42.652;23.364;2024-02-16T05:03:14;95123.88;;;3.18;59.32
33191;BME280;19554;42.652;23.364;2024-02-16T05:05:40;95189.28;;;3.51;59.76
33191;BME280;19554;42.652;23.364;2024-02-16T05:08:06;95157.03;;;3.14;60.15
33191;BME280;19554;42.652;23.364;2024-02-16T05:10:32;95147.72;;;3.11;60.24
33191;BME280;19554;42.652;23.364;2024-02-16T05:12:57;95196.06;;;3.35;60.68
33191;BME280;19554;42.652;23.364;2024-02-16T05:15:24;95196.88;;;3.36;60.12
33191;BME280;19554;42.652;23.364;2024-02-16T05:17:50;95198.31;;;3.31;61.00
33191;BME280;19554;42.652;23.364;2024-02-16T05:20:16;95166.66;;;3.08;61.90
33191;BME280;19554;42.652;23.364;2024-02-16T05:22:43;95161.38;;;3.08;61.17
33191;BME280;19554;42.652;23.364;2024-02-16T05:25:09;95220.41;;;3.49;61.44
33191;BME280;19554;42.652;23.364;2024-02-16T05:27:36;95212.59;;;3.54;61.41
33191;BME280;19554;42.652;23.364;2024-02-16T05:30:02;95220.28;;;3.55;60.88
33191;BME280;19554;42.652;23.364;2024-02-16T05:32:29;95205.81;;;3.46;59.84
33191;BME280;19554;42.652;23.364;2024-02-16T05:34:54;95133.16;;;2.97;59.11
33191;BME280;19554;42.652;23.364;2024-02-16T05:37:20;95218.13;;;3.52;59.47
33191;BME280;19554;42.652;23.364;2024-02-16T05:39:47;95223.50;;;3.58;60.29
33191;BME280;19554;42.652;23.364;2024-02-16T05:42:23;95156.72;;;3.22;60.20
33191;BME280;19554;42.652;23.364;2024-02-16T05:44:49;95230.16;;;3.72;59.16
33191;BME280;19554;42.652;23.364;2024-02-16T05:47:15;95154.41;;;3.37;59.56
33191;BME280;19554;42.652;23.364;2024-02-16T05:49:41;95228.91;;;3.74;58.40
33191;BME280;19554;42.652;23.364;2024-02-16T05:52:06;95186.66;;;3.51;58.67
33191;BME280;19554;42.652;23.364;2024-02-16T05:54:48;95233.50;;;3.67;59.19
33191;BME280;19554;42.652;23.364;2024-02-16T05:57:15;95202.03;;;3.66;59.09
33191;BME280;19554;42.652;23.364;2024-02-16T05:59:41;95229.94;;;4.09;57.85
33191;BME280;19554;42.652;23.364;2024-02-16T06:02:07;95125.16;;;3.62;57.51
33191;BME280;19554;42.652;23.364;2024-02-16T06:04:33;95236.41;;;4.53;57.18
33191;BME280;19554;42.652;23.364;2024-02-16T06:06:59;95146.53;;;4.24;56.28
33191;BME280;19554;42.652;23.364;2024-02-16T06:09:25;95162.72;;;4.57;55.58
33191;BME280;19554;42.652;23.364;2024-02-16T06:11:51;95185.19;;;4.71;54.52
33191;BME280;19554;42.652;23.364;2024-02-16T06:14:16;95154.91;;;4.62;54.29
33191;BME280;19554;42.652;23.364;2024-02-16T06:16:43;95135.34;;;4.63;53.60
33191;BME280;19554;42.652;23.364;2024-02-16T06:19:08;95228.22;;;5.40;54.10
33191;BME280;19554;42.652;23.364;2024-02-16T06:21:35;95240.19;;;5.60;54.03
33191;BME280;19554;42.652;23.364;2024-02-16T06:24:01;95179.06;;;5.28;53.91
33191;BME280;19554;42.652;23.364;2024-02-16T06:26:26;95193.31;;;5.43;53.49
33191;BME280;19554;42.652;23.364;2024-02-16T06:28:52;95095.72;;;4.96;53.89
33191;BME280;19554;42.652;23.364;2024-02-16T06:31:17;95185.00;;;5.52;54.25
33191;BME280;19554;42.652;23.364;2024-02-16T06:33:42;95243.25;;;6.19;53.37
33191;BME280;19554;42.652;23.364;2024-02-16T06:36:08;95152.06;;;5.81;53.12
33191;BME280;19554;42.652;23.364;2024-02-16T06:38:36;95157.97;;;6.05;52.85
33191;BME280;19554;42.652;23.364;2024-02-16T06:41:02;95245.06;;;6.57;53.36
33191;BME280;19554;42.652;23.364;2024-02-16T06:43:28;95163.03;;;5.90;53.65
33191;BME280;19554;42.652;23.364;2024-02-16T06:45:54;95240.78;;;6.34;53.56
33191;BME280;19554;42.652;23.364;2024-02-16T06:48:22;95229.69;;;6.37;53.72
33191;BME280;19554;42.652;23.364;2024-02-16T06:50:47;95236.84;;;6.59;53.49
33191;BME280;19554;42.652;23.364;2024-02-16T06:53:13;95206.25;;;6.29;53.67
33191;BME280;19554;42.652;23.364;2024-02-16T06:55:38;95230.19;;;6.78;53.67
33191;BME280;19554;42.652;23.364;2024-02-16T06:58:04;95132.03;;;6.29;53.36
33191;BME280;19554;42.652;23.364;2024-02-16T07:00:29;95241.25;;;7.19;52.80
33191;BME280;19554;42.652;23.364;2024-02-16T07:02:55;95187.94;;;6.99;52.41
33191;BME280;19554;42.652;23.364;2024-02-16T07:05:20;95200.34;;;7.47;51.58
33191;BME280;19554;42.652;23.364;2024-02-16T07:07:45;95173.31;;;7.23;51.74
33191;BME280;19554;42.652;23.364;2024-02-16T07:10:11;95143.72;;;6.82;51.73
33191;BME280;19554;42.652;23.364;2024-02-16T07:12:39;95245.34;;;7.59;51.94
33191;BME280;19554;42.652;23.364;2024-02-16T07:15:05;95158.47;;;7.27;51.88
33191;BME280;19554;42.652;23.364;2024-02-16T07:17:31;95121.53;;;6.94;52.13
33191;BME280;19554;42.652;23.364;2024-02-16T07:19:57;95211.19;;;7.73;52.25
33191;BME280;19554;42.652;23.364;2024-02-16T07:22:22;95212.88;;;7.89;51.59
33191;BME280;19554;42.652;23.364;2024-02-16T07:24:48;95125.47;;;7.50;51.43
33191;BME280;19554;42.652;23.364;2024-02-16T07:27:13;95224.34;;;8.37;50.59
33191;BME280;19554;42.652;23.364;2024-02-16T07:29:39;95213.78;;;8.05;51.29
33191;BME280;19554;42.652;23.364;2024-02-16T07:32:05;95230.94;;;8.29;51.21
33191;BME280;19554;42.652;23.364;2024-02-16T07:34:30;95237.72;;;8.10;51.64
33191;BME280;19554;42.652;23.364;2024-02-16T07:36:56;95143.59;;;8.06;50.40
33191;BME280;19554;42.652;23.364;2024-02-16T07:39:22;95232.28;;;8.80;49.89
33191;BME280;19554;42.652;23.364;2024-02-16T07:41:49;95162.44;;;8.42;49.54
33191;BME280;19554;42.652;23.364;2024-02-16T07:44:14;95239.84;;;9.08;49.19
33191;BME280;19554;42.652;23.364;2024-02-16T07:46:43;95233.91;;;8.91;49.28
33191;BME280;19554;42.652;23.364;2024-02-16T07:49:08;95175.81;;;8.67;49.37
33191;BME280;19554;42.652;23.364;2024-02-16T07:51:36;95216.88;;;8.87;49.48
33191;BME280;19554;42.652;23.364;2024-02-16T07:54:02;95144.72;;;8.20;49.26
33191;BME280;19554;42.652;23.364;2024-02-16T07:56:28;95197.09;;;8.67;49.07
33191;BME280;19554;42.652;23.364;2024-02-16T07:58:56;95158.69;;;8.38;48.62
33191;BME280;19554;42.652;23.364;2024-02-16T08:01:21;95159.81;;;8.57;48.46
33191;BME280;19554;42.652;23.364;2024-02-16T08:03:46;95148.09;;;8.53;48.04
33191;BME280;19554;42.652;23.364;2024-02-16T08:06:13;95031.91;;;7.96;48.18
33191;BME280;19554;42.652;23.364;2024-02-16T08:08:39;95238.25;;;9.07;48.20
33191;BME280;19554;42.652;23.364;2024-02-16T08:11:04;95192.38;;;8.85;48.88
33191;BME280;19554;42.652;23.364;2024-02-16T08:13:30;95232.94;;;9.22;47.71
33191;BME280;19554;42.652;23.364;2024-02-16T08:15:55;95212.41;;;9.08;47.86
33191;BME280;19554;42.652;23.364;2024-02-16T08:18:21;95236.72;;;9.37;47.12
33191;BME280;19554;42.652;23.364;2024-02-16T08:20:47;95196.16;;;9.04;47.21
33191;BME280;19554;42.652;23.364;2024-02-16T08:23:13;95173.44;;;8.66;47.56
33191;BME280;19554;42.652;23.364;2024-02-16T08:25:38;95214.75;;;8.99;47.72
33191;BME280;19554;42.652;23.364;2024-02-16T08:28:04;95141.53;;;8.81;47.15
33191;BME280;19554;42.652;23.364;2024-02-16T08:30:30;95240.44;;;9.36;47.20
33191;BME280;19554;42.652;23.364;2024-02-16T08:32:55;95238.31;;;9.43;46.83
33191;BME280;19554;42.652;23.364;2024-02-16T08:35:21;95235.38;;;9.49;46.84
33191;BME280;19554;42.652;23.364;2024-02-16T08:37:46;95162.09;;;9.21;46.73
33191;BME280;19554;42.652;23.364;2024-02-16T08:40:12;95219.66;;;9.53;46.47
33191;BME280;19554;42.652;23.364;2024-02-16T08:42:41;95174.88;;;9.30;46.43
33191;BME280;19554;42.652;23.364;2024-02-16T08:45:10;95173.56;;;9.42;46.29
33191;BME280;19554;42.652;23.364;2024-02-16T08:47:37;95214.34;;;9.73;45.79
33191;BME280;19554;42.652;23.364;2024-02-16T08:50:04;95136.00;;;9.03;46.76
33191;BME280;19554;42.652;23.364;2024-02-16T08:52:31;95200.75;;;9.55;47.13
33191;BME280;19554;42.652;23.364;2024-02-16T08:54:56;95158.91;;;9.50;47.03
33191;BME280;19554;42.652;23.364;2024-02-16T08:57:22;95238.34;;;9.94;46.36
33191;BME280;19554;42.652;23.364;2024-02-16T08:59:47;95197.81;;;9.97;45.74
33191;BME280;19554;42.652;23.364;2024-02-16T09:02:13;95195.66;;;10.04;44.98
33191;BME280;19554;42.652;23.364;2024-02-16T09:04:38;95221.78;;;10.28;46.32
33191;BME280;19554;42.652;23.364;2024-02-16T09:07:04;95241.19;;;10.59;45.08
33191;BME280;19554;42.652;23.364;2024-02-16T09:09:29;95191.38;;;10.29;44.47
33191;BME280;19554;42.652;23.364;2024-02-16T09:11:55;95240.41;;;10.58;44.79
33191;BME280;19554;42.652;23.364;2024-02-16T09:14:20;95247.84;;;10.66;44.28
33191;BME280;19554;42.652;23.364;2024-02-16T09:16:48;95218.03;;;10.39;44.59
33191;BME280;19554;42.652;23.364;2024-02-16T09:19:16;95156.72;;;9.98;45.26
33191;BME280;19554;42.652;23.364;2024-02-16T09:21:42;95252.09;;;10.73;44.12
33191;BME280;19554;42.652;23.364;2024-02-16T09:24:07;95228.59;;;10.75;43.85
33191;BME280;19554;42.652;23.364;2024-02-16T09:26:36;95104.47;;;10.02;43.50
33191;BME280;19554;42.652;23.364;2024-02-16T09:29:02;95220.59;;;10.75;43.30
33191;BME280;19554;42.652;23.364;2024-02-16T09:31:28;95244.53;;;10.90;43.36
33191;BME280;19554;42.652;23.364;2024-02-16T09:33:53;95231.81;;;10.66;43.23
33191;BME280;19554;42.652;23.364;2024-02-16T09:36:19;95212.59;;;10.75;42.61
33191;BME280;19554;42.652;23.364;2024-02-16T09:38:44;95194.44;;;10.66;42.44
33191;BME280;19554;42.652;23.364;2024-02-16T09:41:10;95242.84;;;11.14;42.26
33191;BME280;19554;42.652;23.364;2024-02-16T09:43:37;95200.28;;;10.84;42.20
33191;BME280;19554;42.652;23.364;2024-02-16T09:46:04;95224.22;;;10.99;42.34
33191;BME280;19554;42.652;23.364;2024-02-16T09:48:30;95207.69;;;10.92;41.95
33191;BME280;19554;42.652;23.364;2024-02-16T09:50:57;95240.41;;;11.23;41.68
33191;BME280;19554;42.652;23.364;2024-02-16T09:53:25;95195.53;;;10.65;42.02
33191;BME280;19554;42.652;23.364;2024-02-16T09:55:52;95164.66;;;10.44;41.92
33191;BME280;19554;42.652;23.364;2024-02-16T09:58:18;95227.56;;;10.71;42.71
33191;BME280;19554;42.652;23.364;2024-02-16T10:00:55;95196.63;;;10.54;42.41
33191;BME280;19554;42.652;23.364;2024-02-16T10:03:31;95218.47;;;10.72;42.48
33191;BME280;19554;42.652;23.364;2024-02-16T10:06:07;95235.03;;;10.68;42.68
33191;BME280;19554;42.652;23.364;2024-02-16T10:08:33;95208.31;;;10.68;42.80
33191;BME280;19554;42.652;23.364;2024-02-16T10:11:04;95219.97;;;10.98;42.77
33191;BME280;19554;42.652;23.364;2024-02-16T10:13:31;95212.94;;;11.12;42.16
33191;BME280;19554;42.652;23.364;2024-02-16T10:16:07;95206.44;;;11.29;41.27
33191;BME280;19554;42.652;23.364;2024-02-16T10:18:37;95164.91;;;11.02;41.70
33191;BME280;19554;42.652;23.364;2024-02-16T10:21:03;95143.09;;;10.85;41.69
33191;BME280;19554;42.652;23.364;2024-02-16T10:23:29;95215.06;;;11.10;41.07
33191;BME280;19554;42.652;23.364;2024-02-16T10:25:55;95201.75;;;11.00;41.25
33191;BME280;19554;42.652;23.364;2024-02-16T10:28:21;95191.13;;;10.95;41.52
33191;BME280;19554;42.652;23.364;2024-02-16T10:30:57;95174.09;;;10.81;41.92
33191;BME280;19554;42.652;23.364;2024-02-16T10:33:24;95119.03;;;10.35;41.91
33191;BME280;19554;42.652;23.364;2024-02-16T10:35:51;95201.34;;;10.78;42.10
33191;BME280;19554;42.652;23.364;2024-02-16T10:38:19;95138.38;;;10.72;41.54
33191;BME280;19554;42.652;23.364;2024-02-16T10:40:47;95189.66;;;11.18;41.17
33191;BME280;19554;42.652;23.364;2024-02-16T10:43:13;95179.84;;;11.08;40.87
33191;BME280;19554;42.652;23.364;2024-02-16T10:45:40;95182.81;;;11.02;41.07
33191;BME280;19554;42.652;23.364;2024-02-16T10:48:07;95184.59;;;11.17;40.87
33191;BME280;19554;42.652;23.364;2024-02-16T10:50:36;95144.69;;;10.86;41.29
33191;BME280;19554;42.652;23.364;2024-02-16T10:53:15;95166.06;;;10.86;41.75
33191;BME280;19554;42.652;23.364;2024-02-16T10:55:44;95159.06;;;10.95;41.52
33191;BME280;19554;42.652;23.364;2024-02-16T10:58:12;95115.13;;;10.77;41.04
33191;BME280;19554;42.652;23.364;2024-02-16T11:00:51;95168.56;;;11.17;40.69
33191;BME280;19554;42.652;23.364;2024-02-16T11:03:18;95168.00;;;11.20;41.56
33191;BME280;19554;42.652;23.364;2024-02-16T11:05:48;95157.72;;;10.98;41.35
33191;BME280;19554;42.652;23.364;2024-02-16T11:08:16;95164.78;;;11.23;41.59
33191;BME280;19554;42.652;23.364;2024-02-16T11:11:01;95166.97;;;11.10;41.39
33191;BME280;19554;42.652;23.364;2024-02-16T11:13:32;95150.47;;;11.03;41.69
33191;BME280;19554;42.652;23.364;2024-02-16T11:15:59;95159.88;;;10.96;41.64
33191;BME280;19554;42.652;23.364;2024-02-16T11:18:29;95163.06;;;10.98;42.14
33191;BME280;19554;42.652;23.364;2024-02-16T11:20:55;95122.00;;;10.24;42.86
33191;BME280;19554;42.652;23.364;2024-02-16T11:23:28;95156.06;;;10.52;42.95
33191;BME280;19554;42.652;23.364;2024-02-16T11:25:59;95152.59;;;10.52;43.11
33191;BME280;19554;42.652;23.364;2024-02-16T11:28:26;95152.06;;;10.60;42.93
33191;BME280;19554;42.652;23.364;2024-02-16T11:30:52;95111.22;;;10.54;42.87
33191;BME280;19554;42.652;23.364;2024-02-16T11:33:17;95146.84;;;10.84;42.95
33191;BME280;19554;42.652;23.364;2024-02-16T11:35:52;95127.19;;;10.64;42.90
33191;BME280;19554;42.652;23.364;2024-02-16T11:38:18;95079.78;;;10.41;42.76
33191;BME280;19554;42.652;23.364;2024-02-16T11:43:24;95142.56;;;10.88;42.66
33191;BME280;19554;42.652;23.364;2024-02-16T11:45:50;95141.09;;;11.06;42.39
33191;BME280;19554;42.652;23.364;2024-02-16T11:48:24;95133.03;;;11.16;42.34
33191;BME280;19554;42.652;23.364;2024-02-16T11:50:59;95135.41;;;11.18;42.23
33191;BME280;19554;42.652;23.364;2024-02-16T11:53:24;95063.06;;;10.75;42.37
33191;BME280;19554;42.652;23.364;2024-02-16T11:55:50;95070.00;;;10.76;42.07
33191;BME280;19554;42.652;23.364;2024-02-16T11:58:17;95083.00;;;10.87;42.37
33191;BME280;19554;42.652;23.364;2024-02-16T12:00:47;95133.88;;;11.11;42.11
33191;BME280;19554;42.652;23.364;2024-02-16T12:03:25;95107.91;;;10.78;42.62
33191;BME280;19554;42.652;23.364;2024-02-16T12:05:54;95043.03;;;10.28;43.06
33191;BME280;19554;42.652;23.364;2024-02-16T12:08:20;95027.03;;;10.28;43.05
33191;BME280;19554;42.652;23.364;2024-02-16T12:10:51;95065.00;;;10.59;42.95
33191;BME280;19554;42.652;23.364;2024-02-16T12:13:18;95047.47;;;10.48;42.81
33191;BME280;19554;42.652;23.364;2024-02-16T12:15:48;95115.31;;;10.86;43.11
33191;BME280;19554;42.652;23.364;2024-02-16T12:18:23;95051.03;;;10.28;43.73
33191;BME280;19554;42.652;23.364;2024-02-16T12:21:05;95058.94;;;10.48;43.73
33191;BME280;19554;42.652;23.364;2024-02-16T12:23:32;95102.50;;;10.88;43.25
33191;BME280;19554;42.652;23.364;2024-02-16T12:26:00;95096.19;;;10.74;43.36
33191;BME280;19554;42.652;23.364;2024-02-16T12:28:28;95105.00;;;10.74;43.43
33191;BME280;19554;42.652;23.364;2024-02-16T12:30:54;95044.63;;;10.29;43.90
33191;BME280;19554;42.652;23.364;2024-02-16T12:33:24;95035.28;;;10.36;43.58
33191;BME280;19554;42.652;23.364;2024-02-16T12:35:50;95094.06;;;10.71;43.84
33191;BME280;19554;42.652;23.364;2024-02-16T12:38:15;95063.13;;;10.59;43.63
33191;BME280;19554;42.652;23.364;2024-02-16T12:40:48;95088.78;;;10.60;43.63
33191;BME280;19554;42.652;23.364;2024-02-16T12:43:13;95041.94;;;10.34;43.91
33191;BME280;19554;42.652;23.364;2024-02-16T12:45:40;95064.81;;;10.45;43.87
33191;BME280;19554;42.652;23.364;2024-02-16T12:48:06;95033.41;;;10.21;43.72
33191;BME280;19554;42.652;23.364;2024-02-16T12:50:32;95065.88;;;10.49;44.09
33191;BME280;19554;42.652;23.364;2024-02-16T12:52:58;95086.56;;;10.73;43.55
33191;BME280;19554;42.652;23.364;2024-02-16T12:55:24;95078.59;;;10.67;43.36
33191;BME280;19554;42.652;23.364;2024-02-16T12:57:50;94994.00;;;10.13;43.26